createdAt,value
2018-10-21T00:00:01.242Z,946.93
2018-10-21T00:00:13.233Z,946.95
2018-10-21T00:00:25.227Z,946.96
2018-10-21T00:00:37.020Z,946.93
2018-10-21T00:00:50.717Z,946.95
2018-10-21T00:01:02.722Z,946.92
2018-10-21T00:01:14.706Z,946.92
2018-10-21T00:01:25.951Z,946.91
2018-10-21T00:01:39.645Z,946.95
2018-10-21T00:01:51.639Z,946.9
2018-10-21T00:02:00.078Z,946.93
2018-10-21T00:02:11.941Z,946.9
2018-10-21T00:02:24.789Z,946.91
2018-10-21T00:02:36.963Z,946.92
2018-10-21T00:02:48.954Z,946.9
2018-10-21T00:03:00.794Z,946.89
2018-10-21T00:03:12.199Z,946.88
2018-10-21T00:03:24.085Z,946.89
2018-10-21T00:03:36.078Z,946.88
2018-10-21T00:03:48.072Z,946.89
2018-10-21T00:04:01.018Z,946.87
2018-10-21T00:04:13.215Z,946.87
2018-10-21T00:04:25.005Z,946.89
2018-10-21T00:04:36.999Z,946.91
2018-10-21T00:04:49.994Z,946.88
2018-10-21T00:05:00.086Z,946.89
2018-10-21T00:05:11.878Z,946.92
2018-10-21T00:05:23.870Z,946.87
2018-10-21T00:05:37.818Z,946.87
2018-10-21T00:05:49.810Z,946.87
2018-10-21T00:06:01.812Z,946.89
2018-10-21T00:06:13.999Z,946.88
2018-10-21T00:06:26.793Z,946.88
2018-10-21T00:06:38.788Z,946.86
2018-10-21T00:06:50.778Z,946.88
2018-10-21T00:07:02.772Z,946.89
2018-10-21T00:07:15.716Z,946.87
2018-10-21T00:07:27.713Z,946.9
2018-10-21T00:07:39.703Z,946.88
2018-10-21T00:07:51.696Z,946.85
2018-10-21T00:08:01.098Z,946.87
2018-10-21T00:08:13.890Z,946.86
2018-10-21T00:08:25.881Z,946.84
2018-10-21T00:08:37.875Z,946.86
2018-10-21T00:08:49.868Z,946.86
2018-10-21T00:09:02.931Z,946.87
2018-10-21T00:09:15.121Z,946.88
2018-10-21T00:09:27.051Z,946.88
2018-10-21T00:09:38.843Z,946.87
2018-10-21T00:09:51.836Z,946.87
2018-10-21T00:10:03.828Z,946.88
2018-10-21T00:10:15.822Z,946.88
2018-10-21T00:10:27.814Z,946.84
2018-10-21T00:10:40.809Z,946.87
2018-10-21T00:10:52.802Z,946.87
2018-10-21T00:11:00.105Z,946.86
2018-10-21T00:11:11.847Z,946.88
2018-10-21T00:11:25.541Z,946.88
2018-10-21T00:11:37.534Z,946.85
2018-10-21T00:11:49.729Z,946.84
2018-10-21T00:12:00.821Z,946.84
2018-10-21T00:12:14.614Z,946.86
2018-10-21T00:12:26.618Z,946.84
2018-10-21T00:12:38.803Z,946.84
2018-10-21T00:12:49.893Z,946.82
2018-10-21T00:13:03.638Z,946.81
2018-10-21T00:13:15.632Z,946.84
2018-10-21T00:13:27.625Z,946.84
2018-10-21T00:13:38.916Z,946.8
2018-10-21T00:13:52.612Z,946.85
2018-10-21T00:14:00.116Z,946.84
2018-10-21T00:14:12.109Z,946.83
2018-10-21T00:14:23.898Z,946.81
2018-10-21T00:14:36.746Z,946.82
2018-10-21T00:14:48.738Z,946.87
2018-10-21T00:15:00.776Z,946.85
2018-10-21T00:15:12.873Z,946.84
2018-10-21T00:15:25.852Z,946.82
2018-10-21T00:15:38.082Z,946.83
2018-10-21T00:15:49.907Z,946.83
2018-10-21T00:16:01.704Z,946.83
2018-10-21T00:16:14.391Z,946.86
2018-10-21T00:16:26.383Z,946.84
2018-10-21T00:16:38.376Z,946.79
2018-10-21T00:16:50.369Z,946.82
2018-10-21T00:17:00.624Z,946.81
2018-10-21T00:17:13.619Z,946.83
2018-10-21T00:17:25.611Z,946.85
2018-10-21T00:17:37.604Z,946.81
2018-10-21T00:17:49.348Z,946.82
2018-10-21T00:18:02.141Z,946.79
2018-10-21T00:18:14.132Z,946.8
2018-10-21T00:18:26.129Z,946.79
2018-10-21T00:18:38.719Z,946.76
2018-10-21T00:18:51.714Z,946.77
2018-10-21T00:19:03.706Z,946.71
2018-10-21T00:19:15.699Z,946.75
2018-10-21T00:19:27.193Z,946.77
2018-10-21T00:19:40.185Z,946.78
2018-10-21T00:19:52.179Z,946.72
2018-10-21T00:20:00.136Z,946.71
2018-10-21T00:20:12.929Z,946.72
2018-10-21T00:20:26.674Z,946.73
2018-10-21T00:20:38.867Z,946.76
2018-10-21T00:20:50.658Z,946.71
2018-10-21T00:21:02.223Z,946.71
2018-10-21T00:21:15.954Z,946.7
2018-10-21T00:21:28.040Z,946.7
2018-10-21T00:21:40.032Z,946.68
2018-10-21T00:21:52.773Z,946.69
2018-10-21T00:22:04.370Z,946.67
2018-10-21T00:22:16.359Z,946.66
2018-10-21T00:22:28.352Z,946.64
2018-10-21T00:22:40.146Z,946.67
2018-10-21T00:22:53.940Z,946.65
2018-10-21T00:23:00.148Z,946.64
2018-10-21T00:23:12.138Z,946.63
2018-10-21T00:23:24.931Z,946.65
2018-10-21T00:23:37.924Z,946.64
2018-10-21T00:23:50.121Z,946.65
2018-10-21T00:24:01.912Z,946.67
2018-10-21T00:24:14.106Z,946.64
2018-10-21T00:24:26.648Z,946.64
2018-10-21T00:24:38.639Z,946.66
2018-10-21T00:24:50.636Z,946.66
2018-10-21T00:25:02.830Z,946.63
2018-10-21T00:25:14.118Z,946.66
2018-10-21T00:25:26.111Z,946.69
2018-10-21T00:25:38.107Z,946.68
2018-10-21T00:25:50.097Z,946.68
2018-10-21T00:26:00.055Z,946.69
2018-10-21T00:26:12.847Z,946.69
2018-10-21T00:26:25.043Z,946.7
2018-10-21T00:26:36.832Z,946.71
2018-10-21T00:26:49.476Z,946.68
2018-10-21T00:27:02.537Z,946.71
2018-10-21T00:27:14.554Z,946.68
2018-10-21T00:27:26.456Z,946.73
2018-10-21T00:27:37.949Z,946.69
2018-10-21T00:27:50.944Z,946.71
2018-10-21T00:28:02.936Z,946.7
2018-10-21T00:28:14.930Z,946.72
2018-10-21T00:28:27.622Z,946.68
2018-10-21T00:28:40.616Z,946.68
2018-10-21T00:28:52.613Z,946.73
2018-10-21T00:29:00.169Z,946.69
2018-10-21T00:29:12.907Z,946.69
2018-10-21T00:29:26.703Z,946.71
2018-10-21T00:29:38.695Z,946.72
2018-10-21T00:29:50.689Z,946.7
2018-10-21T00:30:01.983Z,946.68
2018-10-21T00:30:15.826Z,946.7
2018-10-21T00:30:27.819Z,946.71
2018-10-21T00:30:40.014Z,946.7
2018-10-21T00:30:51.156Z,946.71
2018-10-21T00:31:04.901Z,946.73
2018-10-21T00:31:17.094Z,946.71
2018-10-21T00:31:29.086Z,946.73
2018-10-21T00:31:41.880Z,946.74
2018-10-21T00:31:59.973Z,946.7
2018-10-21T00:32:11.971Z,946.74
2018-10-21T00:32:24.161Z,946.72
2018-10-21T00:32:35.952Z,946.75
2018-10-21T00:32:47.944Z,946.79
2018-10-21T00:32:59.941Z,946.7
2018-10-21T00:33:12.162Z,946.75
2018-10-21T00:33:25.625Z,946.76
2018-10-21T00:33:37.617Z,946.76
2018-10-21T00:33:49.611Z,946.71
2018-10-21T00:34:01.603Z,946.75
2018-10-21T00:34:12.995Z,946.76
2018-10-21T00:34:24.988Z,946.75
2018-10-21T00:34:36.982Z,946.77
2018-10-21T00:34:48.974Z,946.75
2018-10-21T00:34:59.884Z,946.73
2018-10-21T00:35:12.878Z,946.78
2018-10-21T00:35:24.872Z,946.79
2018-10-21T00:35:36.864Z,946.74
2018-10-21T00:35:49.558Z,946.76
2018-10-21T00:36:02.551Z,946.8
2018-10-21T00:36:14.750Z,946.77
2018-10-21T00:36:26.540Z,946.8
2018-10-21T00:36:38.129Z,946.75
2018-10-21T00:36:51.123Z,946.81
2018-10-21T00:37:03.115Z,946.78
2018-10-21T00:37:15.108Z,946.8
2018-10-21T00:37:27.801Z,946.8
2018-10-21T00:37:38.944Z,946.8
2018-10-21T00:37:50.936Z,946.82
2018-10-21T00:38:00.197Z,946.79
2018-10-21T00:38:13.688Z,946.83
2018-10-21T00:38:26.385Z,946.8
2018-10-21T00:38:38.375Z,946.8
2018-10-21T00:38:50.368Z,946.79
2018-10-21T00:39:02.310Z,946.78
2018-10-21T00:39:14.228Z,946.82
2018-10-21T00:39:25.897Z,946.78
2018-10-21T00:39:37.889Z,946.81
2018-10-21T00:39:51.886Z,946.82
2018-10-21T00:40:04.778Z,946.82
2018-10-21T00:40:16.771Z,946.8
2018-10-21T00:40:28.768Z,946.79
2018-10-21T00:40:40.666Z,946.81
2018-10-21T00:40:52.300Z,946.83
2018-10-21T00:41:00.214Z,946.82
2018-10-21T00:41:11.997Z,946.84
2018-10-21T00:41:23.989Z,946.82
2018-10-21T00:41:36.984Z,946.84
2018-10-21T00:41:48.977Z,946.83
2018-10-21T00:42:00.971Z,946.85
2018-10-21T00:42:13.964Z,946.87
2018-10-21T00:42:27.909Z,946.84
2018-10-21T00:43:41.070Z,946.84
2018-10-21T00:43:53.448Z,946.82
2018-10-21T00:44:37.974Z,946.85
2018-10-21T00:45:22.327Z,946.84
2018-10-21T00:46:07.926Z,946.87
2018-10-21T00:46:46.069Z,946.87
2018-10-21T00:47:31.329Z,946.91
2018-10-21T00:48:16.036Z,946.89
2018-10-21T00:49:01.095Z,946.91
2018-10-21T00:49:46.080Z,946.93
2018-10-21T00:50:31.115Z,946.93
2018-10-21T00:51:16.330Z,946.93
2018-10-21T00:52:02.776Z,946.92
2018-10-21T00:52:46.090Z,946.9
2018-10-21T00:53:31.630Z,946.92
2018-10-21T00:54:16.813Z,946.91
2018-10-21T00:55:02.102Z,946.87
2018-10-21T00:55:46.102Z,946.9
2018-10-21T00:56:31.285Z,946.87
2018-10-21T00:57:16.283Z,946.88
2018-10-21T00:58:02.048Z,946.88
2018-10-21T00:58:46.312Z,946.83
2018-10-21T00:59:31.374Z,946.82
2018-10-21T01:00:16.205Z,946.81
2018-10-21T01:01:01.544Z,946.81
2018-10-21T01:01:46.125Z,946.82
2018-10-21T01:02:31.034Z,946.79
2018-10-21T01:03:15.841Z,946.79
2018-10-21T01:04:01.467Z,946.77
2018-10-21T01:04:46.331Z,946.77
2018-10-21T01:05:31.591Z,946.81
2018-10-21T01:06:16.779Z,946.79
2018-10-21T01:07:01.971Z,946.81
2018-10-21T01:07:46.140Z,946.82
2018-10-21T01:08:30.847Z,946.81
2018-10-21T01:09:15.810Z,946.77
2018-10-21T01:10:02.203Z,946.78
2018-10-21T01:10:46.157Z,946.76
2018-10-21T01:11:31.139Z,946.74
2018-10-21T01:12:16.398Z,946.71
2018-10-21T01:13:01.385Z,946.72
2018-10-21T01:13:45.960Z,946.7
2018-10-21T01:14:31.624Z,946.7
2018-10-21T01:15:15.995Z,946.68
2018-10-21T01:16:02.963Z,946.69
2018-10-21T01:16:45.919Z,946.68
2018-10-21T01:17:31.277Z,946.7
2018-10-21T01:18:16.937Z,946.69
2018-10-21T01:19:01.268Z,946.69
2018-10-21T01:19:46.979Z,946.68
2018-10-21T01:20:32.665Z,946.66
2018-10-21T01:21:18.464Z,946.67
2018-10-21T01:22:04.267Z,946.65
2018-10-21T01:22:46.990Z,946.67
2018-10-21T01:23:31.068Z,946.63
2018-10-21T01:24:16.780Z,946.62
2018-10-21T01:25:02.495Z,946.58
2018-10-21T01:25:46.800Z,946.53
2018-10-21T01:26:32.468Z,946.52
2018-10-21T01:27:18.529Z,946.45
2018-10-21T01:28:04.227Z,946.44
2018-10-21T01:28:47.011Z,946.4
2018-10-21T01:29:31.624Z,946.42
2018-10-21T01:30:17.140Z,946.37
2018-10-21T01:31:01.721Z,946.37
2018-10-21T01:31:46.219Z,946.35
2018-10-21T01:32:31.324Z,946.39
2018-10-21T01:33:15.984Z,946.39
2018-10-21T01:34:02.430Z,946.46
2018-10-21T01:34:46.230Z,946.45
2018-10-21T01:35:31.493Z,946.43
2018-10-21T01:36:18.180Z,946.44
2018-10-21T01:37:05.917Z,946.47
2018-10-21T01:37:46.504Z,946.5
2018-10-21T01:38:32.766Z,946.49
2018-10-21T01:39:17.800Z,946.5
2018-10-21T01:40:02.582Z,946.55
2018-10-21T01:40:46.251Z,946.5
2018-10-21T01:41:31.311Z,946.52
2018-10-21T01:42:16.022Z,946.54
2018-10-21T01:43:00.727Z,946.54
2018-10-21T01:43:46.262Z,946.55
2018-10-21T01:44:31.244Z,946.54
2018-10-21T01:45:16.122Z,946.49
2018-10-21T01:46:01.432Z,946.49
2018-10-21T01:46:46.273Z,946.47
2018-10-21T01:47:31.811Z,946.46
2018-10-21T01:48:17.071Z,946.39
2018-10-21T01:49:02.177Z,946.4
2018-10-21T01:49:46.486Z,946.44
2018-10-21T01:50:30.988Z,946.39
2018-10-21T01:51:16.065Z,946.41
2018-10-21T01:52:02.814Z,946.41
2018-10-21T01:52:46.294Z,946.4
2018-10-21T01:53:30.997Z,946.42
2018-10-21T01:54:15.501Z,946.41
2018-10-21T01:55:00.008Z,946.41
2018-10-21T01:55:46.305Z,946.39
2018-10-21T01:56:31.615Z,946.44
2018-10-21T01:57:16.806Z,946.41
2018-10-21T01:58:03.188Z,946.41
2018-10-21T01:58:46.518Z,946.43
2018-10-21T01:59:31.019Z,946.44
2018-10-21T02:00:16.073Z,946.42
2018-10-21T02:01:01.178Z,946.47
2018-10-21T02:01:47.328Z,946.47
2018-10-21T02:02:31.399Z,946.46
2018-10-21T02:03:15.979Z,946.42
2018-10-21T02:04:01.622Z,946.48
2018-10-21T02:04:46.037Z,946.47
2018-10-21T02:05:30.489Z,946.45
2018-10-21T02:06:14.906Z,946.44
2018-10-21T02:07:00.716Z,946.43
2018-10-21T02:07:46.748Z,946.44
2018-10-21T02:08:30.975Z,946.45
2018-10-21T02:09:16.830Z,946.46
2018-10-21T02:10:02.593Z,946.46
2018-10-21T02:10:47.032Z,946.45
2018-10-21T02:11:33.041Z,946.42
2018-10-21T02:12:18.669Z,946.46
2018-10-21T02:13:03.124Z,946.44
2018-10-21T02:13:46.220Z,946.45
2018-10-21T02:14:31.998Z,946.48
2018-10-21T02:15:17.839Z,946.46
2018-10-21T02:16:03.665Z,946.46
2018-10-21T02:16:46.381Z,946.49
2018-10-21T02:17:31.722Z,946.44
2018-10-21T02:18:17.905Z,946.46
2018-10-21T02:19:04.140Z,946.48
2018-10-21T02:19:46.593Z,946.52
2018-10-21T02:20:32.108Z,946.48
2018-10-21T02:21:17.682Z,946.49
2018-10-21T02:22:03.013Z,946.5
2018-10-21T02:22:46.401Z,946.47
2018-10-21T02:23:32.190Z,946.44
2018-10-21T02:24:17.248Z,946.44
2018-10-21T02:25:02.708Z,946.42
2018-10-21T02:25:46.412Z,946.42
2018-10-21T02:26:31.143Z,946.43
2018-10-21T02:27:17.730Z,946.44
2018-10-21T02:28:03.893Z,946.48
2018-10-21T02:28:46.423Z,946.47
2018-10-21T02:29:32.225Z,946.51
2018-10-21T02:30:17.436Z,946.48
2018-10-21T02:31:03.264Z,946.5
2018-10-21T02:31:46.433Z,946.52
2018-10-21T02:32:31.898Z,946.56
2018-10-21T02:33:17.856Z,946.58
2018-10-21T02:34:04.936Z,946.61
2018-10-21T02:34:46.444Z,946.59
2018-10-21T02:35:32.110Z,946.61
2018-10-21T02:36:17.391Z,946.61
2018-10-21T02:37:03.218Z,946.59
2018-10-21T02:37:46.456Z,946.55
2018-10-21T02:38:31.644Z,946.58
2018-10-21T02:39:16.902Z,946.58
2018-10-21T02:40:04.537Z,946.56
2018-10-21T02:40:46.466Z,946.59
2018-10-21T02:41:32.203Z,946.58
2018-10-21T02:42:17.960Z,946.58
2018-10-21T02:43:03.429Z,946.58
2018-10-21T02:43:46.479Z,946.57
2018-10-21T02:44:32.298Z,946.58
2018-10-21T02:45:17.978Z,946.59
2018-10-21T02:46:04.849Z,946.55
2018-10-21T02:46:46.887Z,946.57
2018-10-21T02:47:32.960Z,946.55
2018-10-21T02:48:18.747Z,946.56
2018-10-21T02:49:03.226Z,946.54
2018-10-21T02:49:46.150Z,946.55
2018-10-21T02:50:32.020Z,946.54
2018-10-21T02:51:17.892Z,946.56
2018-10-21T02:52:05.103Z,946.56
2018-10-21T02:52:47.065Z,946.58
2018-10-21T02:53:34.374Z,946.57
2018-10-21T02:54:19.965Z,946.59
2018-10-21T02:55:06.052Z,946.54
2018-10-21T02:55:46.168Z,946.57
2018-10-21T02:56:32.305Z,946.53
2018-10-21T02:57:17.099Z,946.55
2018-10-21T02:58:05.084Z,946.52
2018-10-21T02:58:46.733Z,946.52
2018-10-21T02:59:32.555Z,946.52
2018-10-21T03:00:18.493Z,946.54
2018-10-21T03:01:03.953Z,946.52
2018-10-21T03:01:46.543Z,946.51
2018-10-21T03:02:31.935Z,946.5
2018-10-21T03:03:17.157Z,946.49
2018-10-21T03:04:02.994Z,946.47
2018-10-21T03:04:46.553Z,946.5
2018-10-21T03:05:31.384Z,946.54
2018-10-21T03:06:15.892Z,946.5
2018-10-21T03:07:00.871Z,946.52
2018-10-21T03:07:46.767Z,946.5
2018-10-21T03:08:32.105Z,946.47
2018-10-21T03:09:17.693Z,946.48
2018-10-21T03:10:05.508Z,946.49
2018-10-21T03:10:46.575Z,946.5
2018-10-21T03:11:31.964Z,946.51
2018-10-21T03:12:17.498Z,946.47
2018-10-21T03:13:03.311Z,946.52
2018-10-21T03:13:46.586Z,946.55
2018-10-21T03:14:32.326Z,946.51
2018-10-21T03:15:17.908Z,946.52
2018-10-21T03:16:03.407Z,946.48
2018-10-21T03:16:46.799Z,946.47
2018-10-21T03:17:31.783Z,946.46
2018-10-21T03:18:17.701Z,946.49
2018-10-21T03:19:03.270Z,946.51
2018-10-21T03:19:46.609Z,946.5
2018-10-21T03:20:31.518Z,946.53
2018-10-21T03:21:17.224Z,946.55
2018-10-21T03:22:04.171Z,946.55
2018-10-21T03:22:46.825Z,946.56
2018-10-21T03:23:31.603Z,946.54
2018-10-21T03:24:17.726Z,946.6
2018-10-21T03:25:03.798Z,946.59
2018-10-21T03:25:46.482Z,946.54
2018-10-21T03:26:30.994Z,946.53
2018-10-21T03:27:17.329Z,946.53
2018-10-21T03:28:04.569Z,946.51
2018-10-21T03:28:45.842Z,946.5
2018-10-21T03:29:33.149Z,946.51
2018-10-21T03:30:19.263Z,946.48
2018-10-21T03:31:05.016Z,946.46
2018-10-21T03:31:45.905Z,946.44
2018-10-21T03:32:32.979Z,946.45
2018-10-21T03:33:19.042Z,946.42
2018-10-21T03:34:06.376Z,946.42
2018-10-21T03:34:46.416Z,946.45
2018-10-21T03:35:33.771Z,946.47
2018-10-21T03:36:19.916Z,946.45
2018-10-21T03:37:05.644Z,946.48
2018-10-21T03:37:46.677Z,946.46
2018-10-21T03:38:31.878Z,946.5
2018-10-21T03:39:17.142Z,946.46
2018-10-21T03:40:03.137Z,946.49
2018-10-21T03:40:46.687Z,946.52
2018-10-21T03:41:32.365Z,946.51
2018-10-21T03:42:18.384Z,946.53
2018-10-21T03:43:04.257Z,946.55
2018-10-21T03:43:46.900Z,946.56
2018-10-21T03:44:31.713Z,946.55
2018-10-21T03:45:16.954Z,946.53
2018-10-21T03:46:02.375Z,946.53
2018-10-21T03:46:46.710Z,946.52
2018-10-21T03:47:32.505Z,946.53
2018-10-21T03:48:17.489Z,946.52
2018-10-21T03:49:02.473Z,946.54
2018-10-21T03:49:46.720Z,946.55
2018-10-21T03:50:31.501Z,946.55
2018-10-21T03:51:16.206Z,946.59
2018-10-21T03:52:00.453Z,946.59
2018-10-21T03:52:46.933Z,946.64
2018-10-21T03:53:31.645Z,946.69
2018-10-21T03:54:16.424Z,946.69
2018-10-21T03:55:01.696Z,946.68
2018-10-21T03:55:46.741Z,946.71
2018-10-21T03:56:31.521Z,946.7
2018-10-21T03:57:16.579Z,946.73
2018-10-21T03:58:01.855Z,946.72
2018-10-21T03:58:46.956Z,946.76
2018-10-21T03:59:32.269Z,946.75
2018-10-21T04:00:17.325Z,946.73
2018-10-21T04:01:03.695Z,946.76
2018-10-21T04:01:48.767Z,946.75
2018-10-21T04:02:33.971Z,946.78
2018-10-21T04:03:19.933Z,946.79
2018-10-21T04:04:06.030Z,946.8
2018-10-21T04:04:47.776Z,946.77
2018-10-21T04:05:33.770Z,946.79
2018-10-21T04:06:19.708Z,946.8
2018-10-21T04:07:04.664Z,946.8
2018-10-21T04:07:47.637Z,946.79
2018-10-21T04:08:32.565Z,946.77
2018-10-21T04:09:16.924Z,946.78
2018-10-21T04:10:02.995Z,946.73
2018-10-21T04:10:47.548Z,946.75
2018-10-21T04:11:33.514Z,946.77
2018-10-21T04:12:18.179Z,946.77
2018-10-21T04:13:03.062Z,946.76
2018-10-21T04:13:46.810Z,946.74
2018-10-21T04:14:31.793Z,946.75
2018-10-21T04:15:16.501Z,946.81
2018-10-21T04:16:01.904Z,946.8
2018-10-21T04:16:46.818Z,946.79
2018-10-21T04:17:31.928Z,946.83
2018-10-21T04:18:16.434Z,946.83
2018-10-21T04:19:01.422Z,946.8
2018-10-21T04:19:47.033Z,946.74
2018-10-21T04:20:32.147Z,946.73
2018-10-21T04:21:17.129Z,946.7
2018-10-21T04:22:02.424Z,946.69
2018-10-21T04:22:47.044Z,946.7
2018-10-21T04:23:32.483Z,946.69
2018-10-21T04:24:17.261Z,946.63
2018-10-21T04:25:02.322Z,946.65
2018-10-21T04:25:46.853Z,946.63
2018-10-21T04:26:31.354Z,946.62
2018-10-21T04:27:15.859Z,946.63
2018-10-21T04:28:00.419Z,946.59
2018-10-21T04:28:46.863Z,946.55
2018-10-21T04:29:32.176Z,946.49
2018-10-21T04:30:17.155Z,946.47
2018-10-21T04:31:01.937Z,946.46
2018-10-21T04:31:46.876Z,946.44
2018-10-21T04:32:31.658Z,946.41
2018-10-21T04:33:16.379Z,946.43
2018-10-21T04:34:02.272Z,946.45
2018-10-21T04:34:48.089Z,946.46
2018-10-21T04:35:33.985Z,946.45
2018-10-21T04:36:19.932Z,946.44
2018-10-21T04:37:06.478Z,946.52
2018-10-21T04:37:47.896Z,946.52
2018-10-21T04:38:34.269Z,946.52
2018-10-21T04:39:20.265Z,946.56
2018-10-21T04:40:04.810Z,946.53
2018-10-21T04:40:48.258Z,946.56
2018-10-21T04:41:34.341Z,946.57
2018-10-21T04:42:18.723Z,946.58
2018-10-21T04:43:04.814Z,946.59
2018-10-21T04:43:48.369Z,946.55
2018-10-21T04:44:32.759Z,946.56
2018-10-21T04:45:18.815Z,946.55
2018-10-21T04:46:03.826Z,946.54
2018-10-21T04:46:47.241Z,946.55
2018-10-21T04:47:34.521Z,946.49
2018-10-21T04:48:20.111Z,946.51
2018-10-21T04:49:05.932Z,946.5
2018-10-21T04:49:46.939Z,946.51
2018-10-21T04:50:32.049Z,946.44
2018-10-21T04:51:17.111Z,946.41
2018-10-21T04:52:02.084Z,946.38
2018-10-21T04:52:47.153Z,946.39
2018-10-21T04:53:31.985Z,946.38
2018-10-21T04:54:16.765Z,946.44
2018-10-21T04:55:02.379Z,946.44
2018-10-21T04:55:46.962Z,946.48
2018-10-21T04:56:31.389Z,946.51
2018-10-21T04:57:16.731Z,946.51
2018-10-21T04:58:02.259Z,946.53
2018-10-21T04:58:46.973Z,946.52
2018-10-21T04:59:33.095Z,946.54
2018-10-21T05:00:18.272Z,946.53
2018-10-21T05:01:03.254Z,946.51
2018-10-21T05:01:46.984Z,946.47
2018-10-21T05:02:31.965Z,946.45
2018-10-21T05:03:17.032Z,946.46
2018-10-21T05:04:02.321Z,946.48
2018-10-21T05:04:46.995Z,946.48
2018-10-21T05:05:32.937Z,946.48
2018-10-21T05:06:18.527Z,946.47
2018-10-21T05:07:03.590Z,946.5
2018-10-21T05:07:48.009Z,946.5
2018-10-21T05:08:34.344Z,946.52
2018-10-21T05:09:18.828Z,946.52
2018-10-21T05:10:05.023Z,946.55
2018-10-21T05:10:46.867Z,946.55
2018-10-21T05:11:33.239Z,946.53
2018-10-21T05:12:19.076Z,946.52
2018-10-21T05:13:05.189Z,946.49
2018-10-21T05:13:47.380Z,946.46
2018-10-21T05:14:31.860Z,946.45
2018-10-21T05:15:18.156Z,946.41
2018-10-21T05:16:04.181Z,946.38
2018-10-21T05:16:47.643Z,946.36
2018-10-21T05:17:34.865Z,946.41
2018-10-21T05:18:21.223Z,946.43
2018-10-21T05:19:05.749Z,946.45
2018-10-21T05:19:47.053Z,946.46
2018-10-21T05:20:31.553Z,946.42
2018-10-21T05:21:16.253Z,946.43
2018-10-21T05:22:01.610Z,946.44
2018-10-21T05:22:47.065Z,946.38
2018-10-21T05:23:32.305Z,946.39
2018-10-21T05:24:16.528Z,946.43
2018-10-21T05:25:01.303Z,946.46
2018-10-21T05:25:47.278Z,946.52
2018-10-21T05:26:32.255Z,946.53
2018-10-21T05:27:17.159Z,946.51
2018-10-21T05:28:01.915Z,946.52
2018-10-21T05:28:47.290Z,946.51
2018-10-21T05:29:32.472Z,946.47
2018-10-21T05:30:17.377Z,946.42
2018-10-21T05:31:01.881Z,946.41
2018-10-21T05:31:47.100Z,946.42
2018-10-21T05:32:32.162Z,946.4
2018-10-21T05:33:17.494Z,946.39
2018-10-21T05:34:02.349Z,946.41
2018-10-21T05:34:47.314Z,946.38
2018-10-21T05:35:32.218Z,946.42
2018-10-21T05:36:17.472Z,946.35
2018-10-21T05:37:02.855Z,946.38
2018-10-21T05:37:47.141Z,946.36
2018-10-21T05:38:31.896Z,946.32
2018-10-21T05:39:18.057Z,946.28
2018-10-21T05:40:02.853Z,946.27
2018-10-21T05:40:47.637Z,946.21
2018-10-21T05:41:32.406Z,946.24
2018-10-21T05:42:17.456Z,946.27
2018-10-21T05:43:02.228Z,946.28
2018-10-21T05:43:48.150Z,946.34
2018-10-21T05:44:31.822Z,946.42
2018-10-21T05:45:17.731Z,946.45
2018-10-21T05:46:04.279Z,946.49
2018-10-21T05:46:47.933Z,946.44
2018-10-21T05:47:35.072Z,946.39
2018-10-21T05:48:21.071Z,946.4
2018-10-21T05:49:05.874Z,946.29
2018-10-21T05:49:47.174Z,946.3
2018-10-21T05:50:32.484Z,946.3
2018-10-21T05:51:18.096Z,946.31
2018-10-21T05:52:03.759Z,946.3
2018-10-21T05:52:47.191Z,946.26
2018-10-21T05:53:33.136Z,946.25
2018-10-21T05:54:18.670Z,946.25
2018-10-21T05:55:04.331Z,946.18
2018-10-21T05:55:47.197Z,946.19
2018-10-21T05:56:33.060Z,946.2
2018-10-21T05:57:18.646Z,946.22
2018-10-21T05:58:03.742Z,946.25
2018-10-21T05:58:47.211Z,946.29
2018-10-21T05:59:32.797Z,946.33
2018-10-21T06:00:17.983Z,946.36
2018-10-21T06:01:03.528Z,946.4
2018-10-21T06:01:47.223Z,946.45
2018-10-21T06:02:32.759Z,946.43
2018-10-21T06:03:18.021Z,946.49
2018-10-21T06:04:04.004Z,946.51
2018-10-21T06:04:47.235Z,946.5
2018-10-21T06:05:33.509Z,946.53
2018-10-21T06:06:18.619Z,946.52
2018-10-21T06:07:03.608Z,946.52
2018-10-21T06:07:47.195Z,946.55
2018-10-21T06:08:31.980Z,946.55
2018-10-21T06:09:17.162Z,946.5
2018-10-21T06:10:03.118Z,946.52
2018-10-21T06:10:47.909Z,946.54
2018-10-21T06:11:34.098Z,946.57
2018-10-21T06:12:18.960Z,946.54
2018-10-21T06:13:05.180Z,946.56
2018-10-21T06:13:47.169Z,946.55
2018-10-21T06:14:33.394Z,946.54
2018-10-21T06:15:19.671Z,946.56
2018-10-21T06:16:05.964Z,946.59
2018-10-21T06:16:47.282Z,946.59
2018-10-21T06:17:32.522Z,946.64
2018-10-21T06:18:17.026Z,946.68
2018-10-21T06:19:02.292Z,946.74
2018-10-21T06:19:47.293Z,946.72
2018-10-21T06:20:31.725Z,946.71
2018-10-21T06:21:17.355Z,946.76
2018-10-21T06:22:02.752Z,946.74
2018-10-21T06:22:47.305Z,946.79
2018-10-21T06:23:33.198Z,946.78
2018-10-21T06:24:19.444Z,946.83
2018-10-21T06:25:05.442Z,946.79
2018-10-21T06:25:47.320Z,946.82
2018-10-21T06:26:32.907Z,946.82
2018-10-21T06:27:18.169Z,946.76
2018-10-21T06:28:03.086Z,946.74
2018-10-21T06:28:47.328Z,946.69
2018-10-21T06:29:32.039Z,946.62
2018-10-21T06:30:16.745Z,946.59
2018-10-21T06:31:01.529Z,946.57
2018-10-21T06:31:47.341Z,946.53
2018-10-21T06:32:32.250Z,946.54
2018-10-21T06:33:16.538Z,946.51
2018-10-21T06:34:02.260Z,946.53
2018-10-21T06:34:47.254Z,946.54
2018-10-21T06:35:31.913Z,946.6
2018-10-21T06:36:16.745Z,946.63
2018-10-21T06:37:01.528Z,946.64
2018-10-21T06:37:47.870Z,946.69
2018-10-21T06:38:32.744Z,946.67
2018-10-21T06:39:17.719Z,946.7
2018-10-21T06:40:03.918Z,946.68
2018-10-21T06:40:47.324Z,946.69
2018-10-21T06:41:32.388Z,946.66
2018-10-21T06:42:17.096Z,946.61
2018-10-21T06:43:02.245Z,946.56
2018-10-21T06:43:47.290Z,946.57
2018-10-21T06:44:32.275Z,946.53
2018-10-21T06:45:17.372Z,946.57
2018-10-21T06:46:04.203Z,946.57
2018-10-21T06:46:47.399Z,946.58
2018-10-21T06:47:32.380Z,946.62
2018-10-21T06:48:17.103Z,946.6
2018-10-21T06:49:02.817Z,946.62
2018-10-21T06:49:47.410Z,946.63
2018-10-21T06:50:31.672Z,946.64
2018-10-21T06:51:16.438Z,946.68
2018-10-21T06:52:01.297Z,946.68
2018-10-21T06:52:47.425Z,946.74
2018-10-21T06:53:33.034Z,946.73
2018-10-21T06:54:18.367Z,946.71
2018-10-21T06:55:03.915Z,946.74
2018-10-21T06:55:47.434Z,946.73
2018-10-21T06:56:32.483Z,946.73
2018-10-21T06:57:19.309Z,946.75
2018-10-21T06:58:07.288Z,946.72
2018-10-21T06:58:47.647Z,946.72
2018-10-21T06:59:33.117Z,946.75
2018-10-21T07:00:18.230Z,946.73
2018-10-21T07:01:03.015Z,946.76
2018-10-21T07:01:48.457Z,946.79
2018-10-21T07:02:34.024Z,946.8
2018-10-21T07:03:18.887Z,946.81
2018-10-21T07:04:02.691Z,946.85
2018-10-21T07:04:47.297Z,946.87
2018-10-21T07:05:35.378Z,946.83
2018-10-21T07:06:19.879Z,946.87
2018-10-21T07:07:05.027Z,946.88
2018-10-21T07:07:47.179Z,946.86
2018-10-21T07:08:32.123Z,946.85
2018-10-21T07:09:17.058Z,946.88
2018-10-21T07:10:02.219Z,946.83
2018-10-21T07:10:47.491Z,946.84
2018-10-21T07:11:32.966Z,946.8
2018-10-21T07:12:18.435Z,946.77
2018-10-21T07:13:03.547Z,946.78
2018-10-21T07:13:47.502Z,946.79
2018-10-21T07:14:32.410Z,946.81
2018-10-21T07:15:17.397Z,946.85
2018-10-21T07:16:04.064Z,946.84
2018-10-21T07:16:47.780Z,946.83
2018-10-21T07:17:34.415Z,946.85
2018-10-21T07:18:20.131Z,946.8
2018-10-21T07:19:04.836Z,946.81
2018-10-21T07:19:47.525Z,946.84
2018-10-21T07:20:32.866Z,946.88
2018-10-21T07:21:18.328Z,946.89
2018-10-21T07:22:03.039Z,946.93
2018-10-21T07:22:47.537Z,946.92
2018-10-21T07:23:32.876Z,946.92
2018-10-21T07:24:17.709Z,946.92
2018-10-21T07:25:02.213Z,946.87
2018-10-21T07:25:47.548Z,946.82
2018-10-21T07:26:32.820Z,946.79